sensor_id;sensor_type;location;lat;lon;timestamp;temperature;humidity
15107;DHT22;7654;45.308;-75.096;2022-07-04T00:00:26;22.00;90.10
15107;DHT22;7654;45.308;-75.096;2022-07-04T00:02:55;22.00;89.70
15107;DHT22;7654;45.308;-75.096;2022-07-04T00:05:25;21.80;89.30
15107;DHT22;7654;45.308;-75.096;2022-07-04T00:07:54;21.70;90.50
15107;DHT22;7654;45.308;-75.096;2022-07-04T00:10:32;21.60;90.50
15107;DHT22;7654;45.308;-75.096;2022-07-04T00:13:04;21.50;90.50
15107;DHT22;7654;45.308;-75.096;2022-07-04T00:15:36;21.40;91.00
15107;DHT22;7654;45.308;-75.096;2022-07-04T00:18:07;21.30;90.70
15107;DHT22;7654;45.308;-75.096;2022-07-04T00:20:37;21.30;90.70
15107;DHT22;7654;45.308;-75.096;2022-07-04T00:23:06;21.20;91.20
15107;DHT22;7654;45.308;-75.096;2022-07-04T00:25:37;21.10;91.50
15107;DHT22;7654;45.308;-75.096;2022-07-04T00:28:07;21.10;91.40
15107;DHT22;7654;45.308;-75.096;2022-07-04T00:30:37;21.00;91.70
15107;DHT22;7654;45.308;-75.096;2022-07-04T00:33:10;21.00;91.70
15107;DHT22;7654;45.308;-75.096;2022-07-04T00:35:40;20.90;91.80
15107;DHT22;7654;45.308;-75.096;2022-07-04T00:38:10;20.80;92.00
15107;DHT22;7654;45.308;-75.096;2022-07-04T00:40:41;20.80;92.00
15107;DHT22;7654;45.308;-75.096;2022-07-04T00:43:11;20.70;92.10
15107;DHT22;7654;45.308;-75.096;2022-07-04T00:45:41;20.60;92.60
15107;DHT22;7654;45.308;-75.096;2022-07-04T00:48:10;20.60;92.20
15107;DHT22;7654;45.308;-75.096;2022-07-04T00:50:43;20.60;92.40
15107;DHT22;7654;45.308;-75.096;2022-07-04T00:53:14;20.50;92.80
15107;DHT22;7654;45.308;-75.096;2022-07-04T00:55:45;20.50;93.10
15107;DHT22;7654;45.308;-75.096;2022-07-04T00:58:15;20.40;93.00
15107;DHT22;7654;45.308;-75.096;2022-07-04T01:00:48;20.30;93.10
15107;DHT22;7654;45.308;-75.096;2022-07-04T01:03:19;20.30;93.20
15107;DHT22;7654;45.308;-75.096;2022-07-04T01:05:49;20.30;93.10
15107;DHT22;7654;45.308;-75.096;2022-07-04T01:08:20;20.30;93.60
15107;DHT22;7654;45.308;-75.096;2022-07-04T01:10:57;20.20;93.80
15107;DHT22;7654;45.308;-75.096;2022-07-04T01:13:27;20.10;93.80
15107;DHT22;7654;45.308;-75.096;2022-07-04T01:15:57;20.10;93.60
15107;DHT22;7654;45.308;-75.096;2022-07-04T01:18:27;20.00;94.40
15107;DHT22;7654;45.308;-75.096;2022-07-04T01:20:59;19.90;94.40
15107;DHT22;7654;45.308;-75.096;2022-07-04T01:23:28;19.90;94.80
15107;DHT22;7654;45.308;-75.096;2022-07-04T01:25:58;19.70;94.80
15107;DHT22;7654;45.308;-75.096;2022-07-04T01:28:28;19.70;95.00
15107;DHT22;7654;45.308;-75.096;2022-07-04T01:30:58;19.60;95.00
15107;DHT22;7654;45.308;-75.096;2022-07-04T01:33:28;19.50;95.40
15107;DHT22;7654;45.308;-75.096;2022-07-04T01:36:00;19.40;95.30
15107;DHT22;7654;45.308;-75.096;2022-07-04T01:38:29;19.40;95.70
15107;DHT22;7654;45.308;-75.096;2022-07-04T01:41:00;19.30;96.10
15107;DHT22;7654;45.308;-75.096;2022-07-04T01:43:30;19.10;96.00
15107;DHT22;7654;45.308;-75.096;2022-07-04T01:46:00;19.00;96.00
15107;DHT22;7654;45.308;-75.096;2022-07-04T01:48:31;19.00;96.00
15107;DHT22;7654;45.308;-75.096;2022-07-04T01:51:02;18.90;96.20
15107;DHT22;7654;45.308;-75.096;2022-07-04T01:53:35;18.80;96.40
15107;DHT22;7654;45.308;-75.096;2022-07-04T01:56:05;18.60;96.70
15107;DHT22;7654;45.308;-75.096;2022-07-04T01:58:35;18.50;96.90
15107;DHT22;7654;45.308;-75.096;2022-07-04T02:01:05;18.40;97.30
15107;DHT22;7654;45.308;-75.096;2022-07-04T02:03:52;18.20;97.70
15107;DHT22;7654;45.308;-75.096;2022-07-04T02:06:23;17.90;98.40
15107;DHT22;7654;45.308;-75.096;2022-07-04T02:08:53;17.70;98.80
15107;DHT22;7654;45.308;-75.096;2022-07-04T02:11:40;17.50;99.30
15107;DHT22;7654;45.308;-75.096;2022-07-04T02:14:27;17.30;99.90
15107;DHT22;7654;45.308;-75.096;2022-07-04T02:16:56;17.00;99.90
15107;DHT22;7654;45.308;-75.096;2022-07-04T02:19:26;16.90;99.90
15107;DHT22;7654;45.308;-75.096;2022-07-04T02:22:01;16.80;99.90
15107;DHT22;7654;45.308;-75.096;2022-07-04T02:24:31;16.60;99.90
15107;DHT22;7654;45.308;-75.096;2022-07-04T02:27:01;16.60;99.90
15107;DHT22;7654;45.308;-75.096;2022-07-04T02:29:31;16.60;99.90
15107;DHT22;7654;45.308;-75.096;2022-07-04T02:32:01;16.60;99.90
15107;DHT22;7654;45.308;-75.096;2022-07-04T02:34:32;16.60;99.90
15107;DHT22;7654;45.308;-75.096;2022-07-04T02:37:03;16.40;99.90
15107;DHT22;7654;45.308;-75.096;2022-07-04T02:39:33;16.30;99.90
15107;DHT22;7654;45.308;-75.096;2022-07-04T02:42:03;16.20;99.90
15107;DHT22;7654;45.308;-75.096;2022-07-04T02:44:33;16.20;99.90
15107;DHT22;7654;45.308;-75.096;2022-07-04T02:47:03;16.00;99.90
15107;DHT22;7654;45.308;-75.096;2022-07-04T02:49:33;15.90;99.90
15107;DHT22;7654;45.308;-75.096;2022-07-04T02:52:06;15.90;99.90
15107;DHT22;7654;45.308;-75.096;2022-07-04T02:54:37;16.00;99.90
15107;DHT22;7654;45.308;-75.096;2022-07-04T02:57:07;16.00;99.90
15107;DHT22;7654;45.308;-75.096;2022-07-04T02:59:37;16.10;99.90
15107;DHT22;7654;45.308;-75.096;2022-07-04T03:02:06;16.20;99.90
15107;DHT22;7654;45.308;-75.096;2022-07-04T03:04:36;16.20;99.90
15107;DHT22;7654;45.308;-75.096;2022-07-04T03:07:09;16.30;99.90
15107;DHT22;7654;45.308;-75.096;2022-07-04T03:09:38;16.40;99.90
15107;DHT22;7654;45.308;-75.096;2022-07-04T03:12:08;16.30;99.90
15107;DHT22;7654;45.308;-75.096;2022-07-04T03:14:38;16.30;99.90
15107;DHT22;7654;45.308;-75.096;2022-07-04T03:17:07;16.30;99.90
15107;DHT22;7654;45.308;-75.096;2022-07-04T03:19:37;16.20;99.90
15107;DHT22;7654;45.308;-75.096;2022-07-04T03:22:07;16.10;99.90
15107;DHT22;7654;45.308;-75.096;2022-07-04T03:24:38;16.10;99.90
15107;DHT22;7654;45.308;-75.096;2022-07-04T03:27:07;16.10;99.90
15107;DHT22;7654;45.308;-75.096;2022-07-04T03:29:37;16.00;99.90
15107;DHT22;7654;45.308;-75.096;2022-07-04T03:32:07;15.90;99.90
15107;DHT22;7654;45.308;-75.096;2022-07-04T03:34:36;15.80;99.90
15107;DHT22;7654;45.308;-75.096;2022-07-04T03:37:06;15.70;99.90
15107;DHT22;7654;45.308;-75.096;2022-07-04T03:39:35;15.50;99.90
15107;DHT22;7654;45.308;-75.096;2022-07-04T03:42:07;15.40;99.90
15107;DHT22;7654;45.308;-75.096;2022-07-04T03:44:37;15.40;99.90
15107;DHT22;7654;45.308;-75.096;2022-07-04T03:47:07;15.40;99.90
15107;DHT22;7654;45.308;-75.096;2022-07-04T03:49:37;15.40;99.90
15107;DHT22;7654;45.308;-75.096;2022-07-04T03:52:06;15.30;99.90
15107;DHT22;7654;45.308;-75.096;2022-07-04T03:54:36;15.30;99.90
15107;DHT22;7654;45.308;-75.096;2022-07-04T03:57:07;15.20;99.90
15107;DHT22;7654;45.308;-75.096;2022-07-04T03:59:37;15.20;99.90
15107;DHT22;7654;45.308;-75.096;2022-07-04T04:02:07;15.10;99.90
15107;DHT22;7654;45.308;-75.096;2022-07-04T04:04:36;15.10;99.90
15107;DHT22;7654;45.308;-75.096;2022-07-04T04:07:23;15.20;99.90
15107;DHT22;7654;45.308;-75.096;2022-07-04T04:09:52;15.10;99.90
15107;DHT22;7654;45.308;-75.096;2022-07-04T04:12:23;15.00;99.90
15107;DHT22;7654;45.308;-75.096;2022-07-04T04:14:53;14.90;99.90
15107;DHT22;7654;45.308;-75.096;2022-07-04T04:17:22;14.80;99.90
15107;DHT22;7654;45.308;-75.096;2022-07-04T04:19:52;14.70;99.90
15107;DHT22;7654;45.308;-75.096;2022-07-04T04:22:21;14.60;99.90
15107;DHT22;7654;45.308;-75.096;2022-07-04T04:24:51;14.40;99.90
15107;DHT22;7654;45.308;-75.096;2022-07-04T04:27:20;14.30;99.90
15107;DHT22;7654;45.308;-75.096;2022-07-04T04:29:52;14.10;99.90
15107;DHT22;7654;45.308;-75.096;2022-07-04T04:32:21;14.00;99.90
15107;DHT22;7654;45.308;-75.096;2022-07-04T04:34:51;13.90;99.90
15107;DHT22;7654;45.308;-75.096;2022-07-04T04:37:20;13.90;99.90
15107;DHT22;7654;45.308;-75.096;2022-07-04T04:39:50;13.80;99.90
15107;DHT22;7654;45.308;-75.096;2022-07-04T04:42:19;13.70;99.90
15107;DHT22;7654;45.308;-75.096;2022-07-04T04:44:49;13.80;99.90
15107;DHT22;7654;45.308;-75.096;2022-07-04T04:47:21;13.90;99.90
15107;DHT22;7654;45.308;-75.096;2022-07-04T04:49:50;13.90;99.90
15107;DHT22;7654;45.308;-75.096;2022-07-04T04:52:20;13.90;99.90
15107;DHT22;7654;45.308;-75.096;2022-07-04T04:54:49;14.00;99.90
15107;DHT22;7654;45.308;-75.096;2022-07-04T04:57:19;14.10;99.90
15107;DHT22;7654;45.308;-75.096;2022-07-04T04:59:49;14.20;99.90
15107;DHT22;7654;45.308;-75.096;2022-07-04T05:02:23;14.30;99.90
15107;DHT22;7654;45.308;-75.096;2022-07-04T05:04:53;14.40;99.90
15107;DHT22;7654;45.308;-75.096;2022-07-04T05:07:23;14.50;99.90
15107;DHT22;7654;45.308;-75.096;2022-07-04T05:09:53;14.70;99.90
15107;DHT22;7654;45.308;-75.096;2022-07-04T05:12:26;14.80;99.90
15107;DHT22;7654;45.308;-75.096;2022-07-04T05:14:56;14.90;99.90
15107;DHT22;7654;45.308;-75.096;2022-07-04T05:17:28;15.00;99.90
15107;DHT22;7654;45.308;-75.096;2022-07-04T05:19:58;15.10;99.90
15107;DHT22;7654;45.308;-75.096;2022-07-04T05:22:27;15.20;99.90
15107;DHT22;7654;45.308;-75.096;2022-07-04T05:24:57;15.30;99.90
15107;DHT22;7654;45.308;-75.096;2022-07-04T05:27:27;15.40;99.90
15107;DHT22;7654;45.308;-75.096;2022-07-04T05:29:58;15.50;99.90
15107;DHT22;7654;45.308;-75.096;2022-07-04T05:32:29;15.60;99.90
15107;DHT22;7654;45.308;-75.096;2022-07-04T05:34:59;15.60;99.90
15107;DHT22;7654;45.308;-75.096;2022-07-04T05:37:28;15.70;99.90
15107;DHT22;7654;45.308;-75.096;2022-07-04T05:39:58;15.70;99.90
15107;DHT22;7654;45.308;-75.096;2022-07-04T05:42:27;15.70;99.90
15107;DHT22;7654;45.308;-75.096;2022-07-04T05:44:57;15.70;99.90
15107;DHT22;7654;45.308;-75.096;2022-07-04T05:47:27;15.70;99.90
15107;DHT22;7654;45.308;-75.096;2022-07-04T05:49:58;15.70;99.90
15107;DHT22;7654;45.308;-75.096;2022-07-04T05:52:28;15.60;99.90
15107;DHT22;7654;45.308;-75.096;2022-07-04T05:54:57;15.60;99.90
15107;DHT22;7654;45.308;-75.096;2022-07-04T05:57:26;15.60;99.90
15107;DHT22;7654;45.308;-75.096;2022-07-04T05:59:56;15.50;99.90
15107;DHT22;7654;45.308;-75.096;2022-07-04T06:02:26;15.50;99.90
15107;DHT22;7654;45.308;-75.096;2022-07-04T06:05:13;15.50;99.90
15107;DHT22;7654;45.308;-75.096;2022-07-04T06:07:42;15.50;99.90
15107;DHT22;7654;45.308;-75.096;2022-07-04T06:10:12;15.50;99.90
15107;DHT22;7654;45.308;-75.096;2022-07-04T06:12:41;15.40;99.90
15107;DHT22;7654;45.308;-75.096;2022-07-04T06:15:11;15.40;99.90
15107;DHT22;7654;45.308;-75.096;2022-07-04T06:17:40;15.40;99.90
15107;DHT22;7654;45.308;-75.096;2022-07-04T06:20:10;15.30;99.90
15107;DHT22;7654;45.308;-75.096;2022-07-04T06:22:41;15.20;99.90
15107;DHT22;7654;45.308;-75.096;2022-07-04T06:25:11;15.20;99.90
15107;DHT22;7654;45.308;-75.096;2022-07-04T06:27:41;15.00;99.90
15107;DHT22;7654;45.308;-75.096;2022-07-04T06:30:11;14.90;99.90
15107;DHT22;7654;45.308;-75.096;2022-07-04T06:32:42;14.70;99.90
15107;DHT22;7654;45.308;-75.096;2022-07-04T06:35:11;14.60;99.90
15107;DHT22;7654;45.308;-75.096;2022-07-04T06:37:59;14.50;99.90
15107;DHT22;7654;45.308;-75.096;2022-07-04T06:40:29;14.30;99.90
15107;DHT22;7654;45.308;-75.096;2022-07-04T06:42:58;14.10;99.90
15107;DHT22;7654;45.308;-75.096;2022-07-04T06:45:28;14.10;99.90
15107;DHT22;7654;45.308;-75.096;2022-07-04T06:47:58;14.00;99.90
15107;DHT22;7654;45.308;-75.096;2022-07-04T06:50:27;14.00;99.90
15107;DHT22;7654;45.308;-75.096;2022-07-04T06:53:08;14.00;99.90
15107;DHT22;7654;45.308;-75.096;2022-07-04T06:55:39;13.90;99.90
15107;DHT22;7654;45.308;-75.096;2022-07-04T06:58:09;13.90;99.90
15107;DHT22;7654;45.308;-75.096;2022-07-04T07:00:40;13.90;99.90
15107;DHT22;7654;45.308;-75.096;2022-07-04T07:05:26;13.80;99.90
15107;DHT22;7654;45.308;-75.096;2022-07-04T07:08:16;13.70;99.90
15107;DHT22;7654;45.308;-75.096;2022-07-04T07:10:45;13.60;99.90
15107;DHT22;7654;45.308;-75.096;2022-07-04T07:13:15;13.50;99.90
15107;DHT22;7654;45.308;-75.096;2022-07-04T07:15:45;13.40;99.90
15107;DHT22;7654;45.308;-75.096;2022-07-04T07:18:14;13.40;99.90
15107;DHT22;7654;45.308;-75.096;2022-07-04T07:20:45;13.30;99.90
15107;DHT22;7654;45.308;-75.096;2022-07-04T07:23:15;13.30;99.90
15107;DHT22;7654;45.308;-75.096;2022-07-04T07:25:45;13.10;99.90
15107;DHT22;7654;45.308;-75.096;2022-07-04T07:28:14;13.10;99.90
15107;DHT22;7654;45.308;-75.096;2022-07-04T07:30:44;13.00;99.90
15107;DHT22;7654;45.308;-75.096;2022-07-04T07:33:13;12.80;99.90
15107;DHT22;7654;45.308;-75.096;2022-07-04T07:35:43;12.70;99.90
15107;DHT22;7654;45.308;-75.096;2022-07-04T07:38:14;12.60;99.90
15107;DHT22;7654;45.308;-75.096;2022-07-04T07:40:44;12.50;99.90
15107;DHT22;7654;45.308;-75.096;2022-07-04T07:43:13;12.50;99.90
15107;DHT22;7654;45.308;-75.096;2022-07-04T07:45:43;12.40;99.90
15107;DHT22;7654;45.308;-75.096;2022-07-04T07:48:12;12.30;99.90
15107;DHT22;7654;45.308;-75.096;2022-07-04T07:50:42;12.30;99.90
15107;DHT22;7654;45.308;-75.096;2022-07-04T07:53:11;12.30;99.90
15107;DHT22;7654;45.308;-75.096;2022-07-04T07:55:43;12.20;99.90
15107;DHT22;7654;45.308;-75.096;2022-07-04T07:58:12;12.20;99.90
15107;DHT22;7654;45.308;-75.096;2022-07-04T08:00:42;12.20;99.90
15107;DHT22;7654;45.308;-75.096;2022-07-04T08:03:22;12.30;99.90
15107;DHT22;7654;45.308;-75.096;2022-07-04T08:06:09;12.40;99.90
15107;DHT22;7654;45.308;-75.096;2022-07-04T08:08:39;12.40;99.90
15107;DHT22;7654;45.308;-75.096;2022-07-04T08:11:11;12.40;99.90
15107;DHT22;7654;45.308;-75.096;2022-07-04T08:13:40;12.50;99.90
15107;DHT22;7654;45.308;-75.096;2022-07-04T08:16:10;12.60;99.90
15107;DHT22;7654;45.308;-75.096;2022-07-04T08:18:40;12.60;99.90
15107;DHT22;7654;45.308;-75.096;2022-07-04T08:21:09;12.70;99.90
15107;DHT22;7654;45.308;-75.096;2022-07-04T08:23:41;12.80;99.90
15107;DHT22;7654;45.308;-75.096;2022-07-04T08:26:32;12.80;99.90
15107;DHT22;7654;45.308;-75.096;2022-07-04T08:29:01;13.00;99.90
15107;DHT22;7654;45.308;-75.096;2022-07-04T08:31:31;13.00;99.90
15107;DHT22;7654;45.308;-75.096;2022-07-04T08:34:18;13.10;99.90
15107;DHT22;7654;45.308;-75.096;2022-07-04T08:36:47;13.20;99.90
15107;DHT22;7654;45.308;-75.096;2022-07-04T08:39:17;13.20;99.90
15107;DHT22;7654;45.308;-75.096;2022-07-04T08:41:48;13.20;99.90
15107;DHT22;7654;45.308;-75.096;2022-07-04T08:44:18;13.20;99.90
15107;DHT22;7654;45.308;-75.096;2022-07-04T08:46:48;13.20;99.90
15107;DHT22;7654;45.308;-75.096;2022-07-04T08:49:20;13.10;99.90
15107;DHT22;7654;45.308;-75.096;2022-07-04T08:51:51;13.10;99.90
15107;DHT22;7654;45.308;-75.096;2022-07-04T08:54:22;13.00;99.90
15107;DHT22;7654;45.308;-75.096;2022-07-04T08:57:11;13.00;99.90
15107;DHT22;7654;45.308;-75.096;2022-07-04T08:59:57;13.00;99.90
15107;DHT22;7654;45.308;-75.096;2022-07-04T09:02:27;13.00;99.90
15107;DHT22;7654;45.308;-75.096;2022-07-04T09:04:57;13.10;99.90
15107;DHT22;7654;45.308;-75.096;2022-07-04T09:07:27;13.10;99.90
15107;DHT22;7654;45.308;-75.096;2022-07-04T09:09:57;13.10;99.90
15107;DHT22;7654;45.308;-75.096;2022-07-04T09:12:28;13.00;99.90
15107;DHT22;7654;45.308;-75.096;2022-07-04T09:15:18;13.10;99.90
15107;DHT22;7654;45.308;-75.096;2022-07-04T09:17:48;13.00;99.90
15107;DHT22;7654;45.308;-75.096;2022-07-04T09:20:18;13.00;99.90
15107;DHT22;7654;45.308;-75.096;2022-07-04T09:22:48;13.00;99.90
15107;DHT22;7654;45.308;-75.096;2022-07-04T09:25:18;13.00;99.90
15107;DHT22;7654;45.308;-75.096;2022-07-04T09:27:50;13.00;99.90
15107;DHT22;7654;45.308;-75.096;2022-07-04T09:30:20;13.00;99.90
15107;DHT22;7654;45.308;-75.096;2022-07-04T09:32:50;13.10;99.90
15107;DHT22;7654;45.308;-75.096;2022-07-04T09:35:22;13.10;99.90
15107;DHT22;7654;45.308;-75.096;2022-07-04T09:37:52;13.10;99.90
15107;DHT22;7654;45.308;-75.096;2022-07-04T09:40:23;13.10;99.90
15107;DHT22;7654;45.308;-75.096;2022-07-04T09:42:54;13.20;99.90
15107;DHT22;7654;45.308;-75.096;2022-07-04T09:45:25;13.20;99.90
15107;DHT22;7654;45.308;-75.096;2022-07-04T09:47:55;13.30;99.90
15107;DHT22;7654;45.308;-75.096;2022-07-04T09:50:25;13.30;99.90
15107;DHT22;7654;45.308;-75.096;2022-07-04T09:52:56;13.40;99.90
15107;DHT22;7654;45.308;-75.096;2022-07-04T09:55:26;13.30;99.90
15107;DHT22;7654;45.308;-75.096;2022-07-04T09:57:58;13.30;99.90
15107;DHT22;7654;45.308;-75.096;2022-07-04T10:00:28;13.30;99.90
15107;DHT22;7654;45.308;-75.096;2022-07-04T10:05:45;13.20;99.90
15107;DHT22;7654;45.308;-75.096;2022-07-04T10:08:20;13.10;99.90
15107;DHT22;7654;45.308;-75.096;2022-07-04T10:10:50;13.10;99.90
15107;DHT22;7654;45.308;-75.096;2022-07-04T10:13:21;13.00;99.90
15107;DHT22;7654;45.308;-75.096;2022-07-04T10:15:51;13.00;99.90
15107;DHT22;7654;45.308;-75.096;2022-07-04T10:18:22;12.90;99.90
15107;DHT22;7654;45.308;-75.096;2022-07-04T10:20:52;12.90;99.90
15107;DHT22;7654;45.308;-75.096;2022-07-04T10:23:22;12.90;99.90
15107;DHT22;7654;45.308;-75.096;2022-07-04T10:25:54;12.80;99.90
15107;DHT22;7654;45.308;-75.096;2022-07-04T10:28:25;13.00;99.90
15107;DHT22;7654;45.308;-75.096;2022-07-04T10:30:56;13.00;99.90
15107;DHT22;7654;45.308;-75.096;2022-07-04T10:33:26;13.10;99.90
15107;DHT22;7654;45.308;-75.096;2022-07-04T10:35:56;13.20;99.90
15107;DHT22;7654;45.308;-75.096;2022-07-04T10:38:29;13.30;99.90
15107;DHT22;7654;45.308;-75.096;2022-07-04T10:41:01;13.40;99.90
15107;DHT22;7654;45.308;-75.096;2022-07-04T10:43:39;13.50;99.90
15107;DHT22;7654;45.308;-75.096;2022-07-04T10:46:25;13.60;99.90
15107;DHT22;7654;45.308;-75.096;2022-07-04T10:48:56;13.70;99.90
15107;DHT22;7654;45.308;-75.096;2022-07-04T10:54:16;13.70;99.90
15107;DHT22;7654;45.308;-75.096;2022-07-04T10:56:47;13.90;99.90
15107;DHT22;7654;45.308;-75.096;2022-07-04T10:59:19;13.90;99.90
15107;DHT22;7654;45.308;-75.096;2022-07-04T11:01:50;14.00;99.90
15107;DHT22;7654;45.308;-75.096;2022-07-04T11:04:47;14.20;99.90
15107;DHT22;7654;45.308;-75.096;2022-07-04T11:07:17;14.40;99.90
15107;DHT22;7654;45.308;-75.096;2022-07-04T11:09:47;14.60;99.90
15107;DHT22;7654;45.308;-75.096;2022-07-04T11:18:07;15.30;99.90
15107;DHT22;7654;45.308;-75.096;2022-07-04T11:20:38;15.50;99.90
15107;DHT22;7654;45.308;-75.096;2022-07-04T11:23:11;15.70;99.90
15107;DHT22;7654;45.308;-75.096;2022-07-04T11:25:42;15.90;99.90
15107;DHT22;7654;45.308;-75.096;2022-07-04T11:28:22;16.10;99.90
15107;DHT22;7654;45.308;-75.096;2022-07-04T11:31:10;16.30;99.90
15107;DHT22;7654;45.308;-75.096;2022-07-04T11:33:41;16.50;99.90
15107;DHT22;7654;45.308;-75.096;2022-07-04T11:36:12;16.60;99.90
15107;DHT22;7654;45.308;-75.096;2022-07-04T11:38:44;16.70;99.90
15107;DHT22;7654;45.308;-75.096;2022-07-04T11:41:14;17.00;99.90
15107;DHT22;7654;45.308;-75.096;2022-07-04T11:44:04;17.10;99.90
15107;DHT22;7654;45.308;-75.096;2022-07-04T11:47:00;17.20;99.90
15107;DHT22;7654;45.308;-75.096;2022-07-04T11:49:32;17.30;99.90
15107;DHT22;7654;45.308;-75.096;2022-07-04T11:52:01;17.40;99.90
15107;DHT22;7654;45.308;-75.096;2022-07-04T11:54:31;17.60;99.90
15107;DHT22;7654;45.308;-75.096;2022-07-04T11:57:19;17.70;99.90
15107;DHT22;7654;45.308;-75.096;2022-07-04T11:59:52;17.90;99.90
15107;DHT22;7654;45.308;-75.096;2022-07-04T12:02:22;17.90;99.90
15107;DHT22;7654;45.308;-75.096;2022-07-04T12:04:54;18.00;99.90
15107;DHT22;7654;45.308;-75.096;2022-07-04T12:07:25;18.00;99.90
15107;DHT22;7654;45.308;-75.096;2022-07-04T12:09:55;18.00;99.90
15107;DHT22;7654;45.308;-75.096;2022-07-04T12:12:25;18.10;99.90
15107;DHT22;7654;45.308;-75.096;2022-07-04T12:14:58;18.10;99.90
15107;DHT22;7654;45.308;-75.096;2022-07-04T12:17:29;18.20;99.90
15107;DHT22;7654;45.308;-75.096;2022-07-04T12:20:01;18.20;99.90
15107;DHT22;7654;45.308;-75.096;2022-07-04T12:22:32;18.30;99.90
15107;DHT22;7654;45.308;-75.096;2022-07-04T12:25:03;18.30;99.90
15107;DHT22;7654;45.308;-75.096;2022-07-04T12:27:33;18.40;99.90
15107;DHT22;7654;45.308;-75.096;2022-07-04T12:30:03;18.40;99.90
15107;DHT22;7654;45.308;-75.096;2022-07-04T12:32:46;18.50;99.90
15107;DHT22;7654;45.308;-75.096;2022-07-04T12:38:19;18.60;99.90
15107;DHT22;7654;45.308;-75.096;2022-07-04T12:40:51;18.80;99.90
15107;DHT22;7654;45.308;-75.096;2022-07-04T12:43:21;18.80;99.90
15107;DHT22;7654;45.308;-75.096;2022-07-04T12:45:51;18.90;99.90
15107;DHT22;7654;45.308;-75.096;2022-07-04T12:48:24;19.00;99.90
15107;DHT22;7654;45.308;-75.096;2022-07-04T12:50:54;19.00;99.90
15107;DHT22;7654;45.308;-75.096;2022-07-04T12:53:26;19.20;99.90
15107;DHT22;7654;45.308;-75.096;2022-07-04T12:56:05;19.20;99.90
15107;DHT22;7654;45.308;-75.096;2022-07-04T12:58:35;19.30;99.90
15107;DHT22;7654;45.308;-75.096;2022-07-04T13:01:05;19.40;99.90
15107;DHT22;7654;45.308;-75.096;2022-07-04T13:03:35;19.50;99.90
15107;DHT22;7654;45.308;-75.096;2022-07-04T13:06:05;19.60;99.90
15107;DHT22;7654;45.308;-75.096;2022-07-04T13:08:36;19.70;99.90
15107;DHT22;7654;45.308;-75.096;2022-07-04T13:11:05;19.90;99.90
15107;DHT22;7654;45.308;-75.096;2022-07-04T13:13:52;20.10;99.90
15107;DHT22;7654;45.308;-75.096;2022-07-04T13:16:22;20.10;99.90
15107;DHT22;7654;45.308;-75.096;2022-07-04T13:18:52;20.20;99.90
15107;DHT22;7654;45.308;-75.096;2022-07-04T13:21:23;20.30;99.90
15107;DHT22;7654;45.308;-75.096;2022-07-04T13:23:55;20.40;99.90
15107;DHT22;7654;45.308;-75.096;2022-07-04T13:26:26;20.50;99.90
15107;DHT22;7654;45.308;-75.096;2022-07-04T13:28:58;20.60;99.90
15107;DHT22;7654;45.308;-75.096;2022-07-04T13:31:28;20.70;99.90
15107;DHT22;7654;45.308;-75.096;2022-07-04T13:33:58;20.80;99.90
15107;DHT22;7654;45.308;-75.096;2022-07-04T13:36:28;20.90;99.90
15107;DHT22;7654;45.308;-75.096;2022-07-04T13:38:59;21.00;99.90
15107;DHT22;7654;45.308;-75.096;2022-07-04T13:41:32;21.00;99.90
15107;DHT22;7654;45.308;-75.096;2022-07-04T13:44:02;21.10;99.90
15107;DHT22;7654;45.308;-75.096;2022-07-04T13:46:32;21.20;99.90
15107;DHT22;7654;45.308;-75.096;2022-07-04T13:49:04;21.30;99.90
15107;DHT22;7654;45.308;-75.096;2022-07-04T13:51:39;21.40;99.90
15107;DHT22;7654;45.308;-75.096;2022-07-04T13:54:12;21.40;99.90
15107;DHT22;7654;45.308;-75.096;2022-07-04T13:56:42;21.40;99.90
15107;DHT22;7654;45.308;-75.096;2022-07-04T13:59:12;21.40;99.90
15107;DHT22;7654;45.308;-75.096;2022-07-04T14:01:41;21.50;99.90
15107;DHT22;7654;45.308;-75.096;2022-07-04T14:04:12;21.70;99.90
15107;DHT22;7654;45.308;-75.096;2022-07-04T14:06:41;21.80;99.90
15107;DHT22;7654;45.308;-75.096;2022-07-04T14:09:13;21.90;99.90
15107;DHT22;7654;45.308;-75.096;2022-07-04T14:11:42;21.90;99.90
15107;DHT22;7654;45.308;-75.096;2022-07-04T14:14:13;22.20;99.90
15107;DHT22;7654;45.308;-75.096;2022-07-04T14:16:42;22.30;99.90
15107;DHT22;7654;45.308;-75.096;2022-07-04T14:19:13;22.40;99.90
15107;DHT22;7654;45.308;-75.096;2022-07-04T14:21:42;22.50;99.90
15107;DHT22;7654;45.308;-75.096;2022-07-04T14:24:14;22.50;99.90
15107;DHT22;7654;45.308;-75.096;2022-07-04T14:26:50;22.60;99.90
15107;DHT22;7654;45.308;-75.096;2022-07-04T14:29:20;22.70;99.90
15107;DHT22;7654;45.308;-75.096;2022-07-04T14:31:50;22.80;99.90
15107;DHT22;7654;45.308;-75.096;2022-07-04T14:34:20;22.90;99.90
15107;DHT22;7654;45.308;-75.096;2022-07-04T14:36:49;23.00;99.90
15107;DHT22;7654;45.308;-75.096;2022-07-04T14:39:20;23.10;99.90
15107;DHT22;7654;45.308;-75.096;2022-07-04T14:41:50;23.20;99.90
15107;DHT22;7654;45.308;-75.096;2022-07-04T14:44:20;23.20;99.90
15107;DHT22;7654;45.308;-75.096;2022-07-04T14:46:53;23.30;99.90
15107;DHT22;7654;45.308;-75.096;2022-07-04T14:49:28;23.50;99.90
15107;DHT22;7654;45.308;-75.096;2022-07-04T14:51:58;23.60;99.90
15107;DHT22;7654;45.308;-75.096;2022-07-04T14:54:30;23.80;99.90
15107;DHT22;7654;45.308;-75.096;2022-07-04T14:56:59;24.00;98.50
15107;DHT22;7654;45.308;-75.096;2022-07-04T14:59:29;24.00;97.30
15107;DHT22;7654;45.308;-75.096;2022-07-04T15:01:59;24.10;99.30
15107;DHT22;7654;45.308;-75.096;2022-07-04T15:04:29;24.10;98.40
15107;DHT22;7654;45.308;-75.096;2022-07-04T15:06:59;24.20;97.90
15107;DHT22;7654;45.308;-75.096;2022-07-04T15:09:31;24.30;96.90
15107;DHT22;7654;45.308;-75.096;2022-07-04T15:12:01;24.40;99.50
15107;DHT22;7654;45.308;-75.096;2022-07-04T15:14:31;24.60;98.10
15107;DHT22;7654;45.308;-75.096;2022-07-04T15:17:00;24.70;97.00
15107;DHT22;7654;45.308;-75.096;2022-07-04T15:19:34;24.70;97.90
15107;DHT22;7654;45.308;-75.096;2022-07-04T15:22:23;24.80;99.30
15107;DHT22;7654;45.308;-75.096;2022-07-04T15:25:11;24.90;97.00
15107;DHT22;7654;45.308;-75.096;2022-07-04T15:27:41;25.00;97.40
15107;DHT22;7654;45.308;-75.096;2022-07-04T15:30:11;25.20;96.10
15107;DHT22;7654;45.308;-75.096;2022-07-04T15:32:40;25.40;96.30
15107;DHT22;7654;45.308;-75.096;2022-07-04T15:35:10;25.40;95.90
15107;DHT22;7654;45.308;-75.096;2022-07-04T15:37:41;25.40;95.80
15107;DHT22;7654;45.308;-75.096;2022-07-04T15:40:12;25.40;97.00
15107;DHT22;7654;45.308;-75.096;2022-07-04T15:42:41;25.50;95.00
15107;DHT22;7654;45.308;-75.096;2022-07-04T15:45:11;25.40;94.00
15107;DHT22;7654;45.308;-75.096;2022-07-04T15:47:41;25.50;93.90
15107;DHT22;7654;45.308;-75.096;2022-07-04T15:50:10;25.50;93.70
15107;DHT22;7654;45.308;-75.096;2022-07-04T15:52:40;25.60;93.40
15107;DHT22;7654;45.308;-75.096;2022-07-04T15:55:09;25.70;94.50
15107;DHT22;7654;45.308;-75.096;2022-07-04T15:57:40;26.00;96.80